Tulsa, OK (74112)

1:14 PM CST on February 14, 2016 (GMT -0600)
East Tulsa | | Change Station
CLOSE
Current Station
Personal Weather Station
Location: Tulsa, OK
Elevation: 617 ft
Nearby Weather Stations

Elev 617 ft 36.16 °N, 95.87 °W | Updated 0 second ago

Overcast
Overcast
53.2 °F
Feels Like 53.2 °F
N
1.0
Wind Variable Wind from ESE
Gusts 5.0 mph

Today
High -- | Low -- °F
--% Chance of Precip.
Yesterday
High -- | Low -- °F
Precip. -- in
Pressure 29.94 in
Visibility 10.0 miles
Clouds Mostly Cloudy 20000 ft
Dew Point 37 °F
Humidity 54%
Rainfall 0.00 in
Snow Depth Not available.
7:12 AM 6:03 PM
Waxing Crescent, 44% visible
METAR KTUL 141853Z 20003KT 10SM BKN200 11/01 A2993 RMK AO2 SLP136 T01060011
Pressure 29.94 in
Visibility 10.0 miles
Clouds Mostly Cloudy 20000 ft
Dew Point 37 °F
Humidity 54%
Rainfall 0.00 in
Snow Depth Not available.
7:12 AM 6:03 PM
Waxing Crescent, 44% visible
METAR KTUL 141853Z 20003KT 10SM BKN200 11/01 A2993 RMK AO2 SLP136 T01060011

10-Day Weather Forecast

Almanac

Astronomy

Feb. 14, 2016 Rise Set
Actual Time
Civil Twilight
Nautical Twilight
Astronomical Twilight
Moon
Length of Visible Light
Length of Day
Tomorrow will be .
, % of the Moon is Illuminated

Today's Extremes

State Highs State Lows

Community

WunderPhotos

Upload Photos

1,892,875 photos uploaded!

WunderBlog® & News

Nearby

Air Quality

  Air Quality AQ Index Pollutant
Not available.

Snow Depth

Station Depth Elevation

Earthquake Activity

City Distance Mag. Time & Date
Minimum magnitude displayed is 2.5.

Coastal Water Temperatures

Place Temperature

Stations

Nearby Weather Stations

Station Location Temp. Windchill Dew Point Humidity Wind Precip. Elev Updated Type
                   

Watches & Warnings

There are currently no watches in effect.